Terminal Aerodrome Forecast
Issued by NWS Charleston, SC

Current Version | Previous Version | Text Only | Print | Product List | Glossary On
Versions: 1 2 3 4 5 6 7 8 9 10 11 12 13 14 15 16 17 18 19 20 21 22 23 24 25
000
FTUS42 KCHS 201100
TAFSAV
TAF
KSAV 201137Z 2012/2112 36012KT P6SM SCT003 OVC006
     FM201500 36014G20KT P6SM SCT009 OVC015
     FM202100 01013G18KT P6SM SCT015 BKN030
     FM210000 01009KT P6SM BKN035
     FM210600 36008KT P6SM BKN025=

USA.gov is the U.S. government's official web portal to all federal, state and local government web resources and services.